sensor_id;sensor_type;location;lat;lon;timestamp;P1;durP1;ratioP1;P2;durP2;ratioP2
83284;SDS011;73191;50.074;8.488;2023-12-07T00:01:43;14.15;;;6.80;;
83284;SDS011;73191;50.074;8.488;2023-12-07T00:04:11;13.10;;;7.07;;
83284;SDS011;73191;50.074;8.488;2023-12-07T00:06:38;13.68;;;7.82;;
83284;SDS011;73191;50.074;8.488;2023-12-07T00:09:06;15.50;;;8.23;;
83284;SDS011;73191;50.074;8.488;2023-12-07T00:11:34;15.13;;;7.85;;
83284;SDS011;73191;50.074;8.488;2023-12-07T00:14:02;13.80;;;8.13;;
83284;SDS011;73191;50.074;8.488;2023-12-07T00:16:30;13.70;;;8.20;;
83284;SDS011;73191;50.074;8.488;2023-12-07T00:18:59;14.20;;;8.00;;
83284;SDS011;73191;50.074;8.488;2023-12-07T00:21:27;14.05;;;7.10;;
83284;SDS011;73191;50.074;8.488;2023-12-07T00:23:55;12.65;;;7.32;;
83284;SDS011;73191;50.074;8.488;2023-12-07T00:26:22;15.23;;;7.38;;
83284;SDS011;73191;50.074;8.488;2023-12-07T00:28:50;14.27;;;7.63;;
83284;SDS011;73191;50.074;8.488;2023-12-07T00:31:18;13.77;;;8.07;;
83284;SDS011;73191;50.074;8.488;2023-12-07T00:33:46;12.85;;;7.90;;
83284;SDS011;73191;50.074;8.488;2023-12-07T00:36:16;12.25;;;7.07;;
83284;SDS011;73191;50.074;8.488;2023-12-07T00:38:44;12.10;;;7.15;;
83284;SDS011;73191;50.074;8.488;2023-12-07T00:41:12;15.07;;;7.85;;
83284;SDS011;73191;50.074;8.488;2023-12-07T00:43:39;15.55;;;7.55;;
83284;SDS011;73191;50.074;8.488;2023-12-07T00:46:07;13.77;;;7.55;;
83284;SDS011;73191;50.074;8.488;2023-12-07T00:48:35;14.13;;;7.45;;
83284;SDS011;73191;50.074;8.488;2023-12-07T00:51:03;13.68;;;7.57;;
83284;SDS011;73191;50.074;8.488;2023-12-07T00:53:33;12.30;;;6.78;;
83284;SDS011;73191;50.074;8.488;2023-12-07T00:56:02;14.85;;;8.93;;
83284;SDS011;73191;50.074;8.488;2023-12-07T00:58:30;13.15;;;7.97;;
83284;SDS011;73191;50.074;8.488;2023-12-07T01:00:58;14.57;;;7.43;;
83284;SDS011;73191;50.074;8.488;2023-12-07T01:03:26;13.88;;;8.00;;
83284;SDS011;73191;50.074;8.488;2023-12-07T01:05:54;16.73;;;7.72;;
83284;SDS011;73191;50.074;8.488;2023-12-07T01:08:22;18.67;;;8.32;;
83284;SDS011;73191;50.074;8.488;2023-12-07T01:10:51;13.07;;;7.78;;
83284;SDS011;73191;50.074;8.488;2023-12-07T01:13:19;14.02;;;8.07;;
83284;SDS011;73191;50.074;8.488;2023-12-07T01:15:47;15.30;;;8.52;;
83284;SDS011;73191;50.074;8.488;2023-12-07T01:18:15;13.85;;;7.50;;
83284;SDS011;73191;50.074;8.488;2023-12-07T01:20:43;13.85;;;7.93;;
83284;SDS011;73191;50.074;8.488;2023-12-07T01:23:11;15.05;;;7.65;;
83284;SDS011;73191;50.074;8.488;2023-12-07T01:25:42;14.23;;;7.30;;
83284;SDS011;73191;50.074;8.488;2023-12-07T01:28:11;13.73;;;7.47;;
83284;SDS011;73191;50.074;8.488;2023-12-07T01:30:39;13.55;;;6.80;;
83284;SDS011;73191;50.074;8.488;2023-12-07T01:33:06;11.57;;;6.53;;
83284;SDS011;73191;50.074;8.488;2023-12-07T01:35:34;14.43;;;7.45;;
83284;SDS011;73191;50.074;8.488;2023-12-07T01:38:02;14.90;;;7.68;;
83284;SDS011;73191;50.074;8.488;2023-12-07T01:40:30;14.07;;;7.05;;
83284;SDS011;73191;50.074;8.488;2023-12-07T01:42:58;15.02;;;7.80;;
83284;SDS011;73191;50.074;8.488;2023-12-07T01:45:29;12.63;;;7.72;;
83284;SDS011;73191;50.074;8.488;2023-12-07T01:47:56;12.98;;;8.02;;
83284;SDS011;73191;50.074;8.488;2023-12-07T01:50:26;14.55;;;8.07;;
83284;SDS011;73191;50.074;8.488;2023-12-07T01:52:54;15.10;;;7.80;;
83284;SDS011;73191;50.074;8.488;2023-12-07T01:55:24;12.98;;;6.95;;
83284;SDS011;73191;50.074;8.488;2023-12-07T01:57:53;13.55;;;7.07;;
83284;SDS011;73191;50.074;8.488;2023-12-07T02:00:21;12.63;;;8.10;;
83284;SDS011;73191;50.074;8.488;2023-12-07T02:02:50;14.13;;;6.22;;
83284;SDS011;73191;50.074;8.488;2023-12-07T02:05:18;11.60;;;7.13;;
83284;SDS011;73191;50.074;8.488;2023-12-07T02:07:46;12.95;;;6.75;;
83284;SDS011;73191;50.074;8.488;2023-12-07T02:10:13;13.35;;;7.30;;
83284;SDS011;73191;50.074;8.488;2023-12-07T02:12:42;13.05;;;7.00;;
83284;SDS011;73191;50.074;8.488;2023-12-07T02:15:10;11.20;;;6.55;;
83284;SDS011;73191;50.074;8.488;2023-12-07T02:17:40;9.82;;;7.00;;
83284;SDS011;73191;50.074;8.488;2023-12-07T02:20:13;14.43;;;6.93;;
83284;SDS011;73191;50.074;8.488;2023-12-07T02:22:42;16.05;;;8.00;;
83284;SDS011;73191;50.074;8.488;2023-12-07T02:25:15;12.07;;;6.97;;
83284;SDS011;73191;50.074;8.488;2023-12-07T02:27:48;12.88;;;7.50;;
83284;SDS011;73191;50.074;8.488;2023-12-07T02:30:16;11.18;;;6.97;;
83284;SDS011;73191;50.074;8.488;2023-12-07T02:32:44;12.45;;;7.53;;
83284;SDS011;73191;50.074;8.488;2023-12-07T02:35:13;13.68;;;7.32;;
83284;SDS011;73191;50.074;8.488;2023-12-07T02:37:42;11.52;;;7.30;;
83284;SDS011;73191;50.074;8.488;2023-12-07T02:40:12;16.75;;;7.85;;
83284;SDS011;73191;50.074;8.488;2023-12-07T02:42:41;14.52;;;7.90;;
83284;SDS011;73191;50.074;8.488;2023-12-07T02:45:11;12.70;;;7.45;;
83284;SDS011;73191;50.074;8.488;2023-12-07T02:47:39;11.27;;;6.70;;
83284;SDS011;73191;50.074;8.488;2023-12-07T02:50:07;16.33;;;7.97;;
83284;SDS011;73191;50.074;8.488;2023-12-07T02:52:35;15.38;;;8.07;;
83284;SDS011;73191;50.074;8.488;2023-12-07T02:55:04;15.27;;;8.35;;
83284;SDS011;73191;50.074;8.488;2023-12-07T02:57:32;13.77;;;8.40;;
83284;SDS011;73191;50.074;8.488;2023-12-07T03:00:01;15.25;;;7.57;;
83284;SDS011;73191;50.074;8.488;2023-12-07T03:02:34;17.70;;;8.02;;
83284;SDS011;73191;50.074;8.488;2023-12-07T03:05:02;14.60;;;8.68;;
83284;SDS011;73191;50.074;8.488;2023-12-07T03:07:31;19.25;;;8.35;;
83284;SDS011;73191;50.074;8.488;2023-12-07T03:09:58;14.75;;;7.72;;
83284;SDS011;73191;50.074;8.488;2023-12-07T03:12:26;13.50;;;8.43;;
83284;SDS011;73191;50.074;8.488;2023-12-07T03:14:54;13.02;;;7.35;;
83284;SDS011;73191;50.074;8.488;2023-12-07T03:17:22;13.75;;;7.60;;
83284;SDS011;73191;50.074;8.488;2023-12-07T03:19:51;17.35;;;8.45;;
83284;SDS011;73191;50.074;8.488;2023-12-07T03:22:19;14.35;;;7.18;;
83284;SDS011;73191;50.074;8.488;2023-12-07T03:24:51;14.10;;;8.25;;
83284;SDS011;73191;50.074;8.488;2023-12-07T03:27:19;13.95;;;7.50;;
83284;SDS011;73191;50.074;8.488;2023-12-07T03:29:47;14.52;;;8.05;;
83284;SDS011;73191;50.074;8.488;2023-12-07T03:32:15;17.38;;;8.00;;
83284;SDS011;73191;50.074;8.488;2023-12-07T03:34:42;14.88;;;7.93;;
83284;SDS011;73191;50.074;8.488;2023-12-07T03:37:13;14.07;;;7.47;;
83284;SDS011;73191;50.074;8.488;2023-12-07T03:39:40;12.20;;;7.40;;
83284;SDS011;73191;50.074;8.488;2023-12-07T03:42:08;15.68;;;7.82;;
83284;SDS011;73191;50.074;8.488;2023-12-07T03:44:56;14.63;;;7.35;;
83284;SDS011;73191;50.074;8.488;2023-12-07T03:47:24;15.35;;;7.28;;
83284;SDS011;73191;50.074;8.488;2023-12-07T03:49:51;15.23;;;7.75;;
83284;SDS011;73191;50.074;8.488;2023-12-07T03:52:20;12.13;;;7.15;;
83284;SDS011;73191;50.074;8.488;2023-12-07T03:54:49;16.17;;;7.85;;
83284;SDS011;73191;50.074;8.488;2023-12-07T03:57:16;15.77;;;8.02;;
83284;SDS011;73191;50.074;8.488;2023-12-07T03:59:44;12.35;;;7.50;;
83284;SDS011;73191;50.074;8.488;2023-12-07T04:02:13;14.73;;;7.15;;
83284;SDS011;73191;50.074;8.488;2023-12-07T04:04:40;16.20;;;7.70;;
83284;SDS011;73191;50.074;8.488;2023-12-07T04:07:08;14.00;;;7.32;;
83284;SDS011;73191;50.074;8.488;2023-12-07T04:09:38;14.98;;;7.38;;
83284;SDS011;73191;50.074;8.488;2023-12-07T04:12:07;14.38;;;7.68;;
83284;SDS011;73191;50.074;8.488;2023-12-07T04:14:35;16.17;;;7.57;;
83284;SDS011;73191;50.074;8.488;2023-12-07T04:17:03;14.57;;;7.50;;
83284;SDS011;73191;50.074;8.488;2023-12-07T04:19:31;15.80;;;7.53;;
83284;SDS011;73191;50.074;8.488;2023-12-07T04:21:59;15.60;;;7.57;;
83284;SDS011;73191;50.074;8.488;2023-12-07T04:24:27;15.60;;;8.23;;
83284;SDS011;73191;50.074;8.488;2023-12-07T04:26:57;14.20;;;7.43;;
83284;SDS011;73191;50.074;8.488;2023-12-07T04:29:24;15.18;;;8.27;;
83284;SDS011;73191;50.074;8.488;2023-12-07T04:31:52;16.70;;;8.07;;
83284;SDS011;73191;50.074;8.488;2023-12-07T04:34:20;14.68;;;8.50;;
83284;SDS011;73191;50.074;8.488;2023-12-07T04:36:49;15.85;;;8.43;;
83284;SDS011;73191;50.074;8.488;2023-12-07T04:39:16;19.48;;;8.07;;
83284;SDS011;73191;50.074;8.488;2023-12-07T04:41:45;16.25;;;8.40;;
83284;SDS011;73191;50.074;8.488;2023-12-07T04:44:14;17.08;;;8.10;;
83284;SDS011;73191;50.074;8.488;2023-12-07T04:46:42;13.32;;;8.07;;
83284;SDS011;73191;50.074;8.488;2023-12-07T04:49:10;14.82;;;7.85;;
83284;SDS011;73191;50.074;8.488;2023-12-07T04:51:38;13.55;;;8.20;;
83284;SDS011;73191;50.074;8.488;2023-12-07T04:54:07;12.45;;;6.95;;
83284;SDS011;73191;50.074;8.488;2023-12-07T04:56:45;16.70;;;8.02;;
83284;SDS011;73191;50.074;8.488;2023-12-07T04:59:12;16.17;;;8.18;;
83284;SDS011;73191;50.074;8.488;2023-12-07T05:01:42;14.93;;;8.07;;
83284;SDS011;73191;50.074;8.488;2023-12-07T05:04:10;18.60;;;8.27;;
83284;SDS011;73191;50.074;8.488;2023-12-07T05:06:38;15.38;;;8.10;;
83284;SDS011;73191;50.074;8.488;2023-12-07T05:09:05;11.70;;;7.35;;
83284;SDS011;73191;50.074;8.488;2023-12-07T05:11:35;15.57;;;7.50;;
83284;SDS011;73191;50.074;8.488;2023-12-07T05:14:04;16.65;;;7.85;;
83284;SDS011;73191;50.074;8.488;2023-12-07T05:16:31;13.70;;;7.15;;
83284;SDS011;73191;50.074;8.488;2023-12-07T05:19:00;17.33;;;8.95;;
83284;SDS011;73191;50.074;8.488;2023-12-07T05:21:29;13.30;;;7.78;;
83284;SDS011;73191;50.074;8.488;2023-12-07T05:23:56;16.80;;;8.05;;
83284;SDS011;73191;50.074;8.488;2023-12-07T05:26:24;12.95;;;7.40;;
83284;SDS011;73191;50.074;8.488;2023-12-07T05:28:52;16.33;;;7.82;;
83284;SDS011;73191;50.074;8.488;2023-12-07T05:31:20;17.02;;;8.32;;
83284;SDS011;73191;50.074;8.488;2023-12-07T05:33:47;14.30;;;6.97;;
83284;SDS011;73191;50.074;8.488;2023-12-07T05:36:16;15.27;;;7.97;;
83284;SDS011;73191;50.074;8.488;2023-12-07T05:38:44;16.70;;;8.82;;
83284;SDS011;73191;50.074;8.488;2023-12-07T05:41:12;15.13;;;7.82;;
83284;SDS011;73191;50.074;8.488;2023-12-07T05:43:40;12.38;;;6.95;;
83284;SDS011;73191;50.074;8.488;2023-12-07T05:46:16;15.77;;;7.82;;
83284;SDS011;73191;50.074;8.488;2023-12-07T05:48:44;14.43;;;7.80;;
83284;SDS011;73191;50.074;8.488;2023-12-07T05:51:12;12.25;;;7.35;;
83284;SDS011;73191;50.074;8.488;2023-12-07T05:53:42;11.70;;;8.20;;
83284;SDS011;73191;50.074;8.488;2023-12-07T05:56:10;13.82;;;7.55;;
83284;SDS011;73191;50.074;8.488;2023-12-07T05:58:38;12.40;;;7.15;;
83284;SDS011;73191;50.074;8.488;2023-12-07T06:01:05;14.18;;;7.35;;
83284;SDS011;73191;50.074;8.488;2023-12-07T06:03:34;12.32;;;6.82;;
83284;SDS011;73191;50.074;8.488;2023-12-07T06:06:02;16.60;;;7.53;;
83284;SDS011;73191;50.074;8.488;2023-12-07T06:08:30;14.85;;;7.22;;
83284;SDS011;73191;50.074;8.488;2023-12-07T06:10:59;15.48;;;7.95;;
83284;SDS011;73191;50.074;8.488;2023-12-07T06:13:28;13.70;;;8.13;;
83284;SDS011;73191;50.074;8.488;2023-12-07T06:15:56;15.85;;;7.57;;
83284;SDS011;73191;50.074;8.488;2023-12-07T06:18:23;13.57;;;7.70;;
83284;SDS011;73191;50.074;8.488;2023-12-07T06:20:51;16.73;;;7.78;;
83284;SDS011;73191;50.074;8.488;2023-12-07T06:23:19;15.70;;;8.15;;
83284;SDS011;73191;50.074;8.488;2023-12-07T06:25:47;14.75;;;7.40;;
83284;SDS011;73191;50.074;8.488;2023-12-07T06:28:17;13.25;;;7.93;;
83284;SDS011;73191;50.074;8.488;2023-12-07T06:30:45;14.55;;;8.00;;
83284;SDS011;73191;50.074;8.488;2023-12-07T06:33:12;16.75;;;8.88;;
83284;SDS011;73191;50.074;8.488;2023-12-07T06:35:40;15.98;;;8.23;;
83284;SDS011;73191;50.074;8.488;2023-12-07T06:38:08;13.90;;;7.75;;
83284;SDS011;73191;50.074;8.488;2023-12-07T06:40:36;13.48;;;8.40;;
83284;SDS011;73191;50.074;8.488;2023-12-07T06:43:04;14.70;;;7.70;;
83284;SDS011;73191;50.074;8.488;2023-12-07T06:45:33;13.65;;;8.55;;
83284;SDS011;73191;50.074;8.488;2023-12-07T06:48:00;19.13;;;9.38;;
83284;SDS011;73191;50.074;8.488;2023-12-07T06:50:29;20.70;;;10.10;;
83284;SDS011;73191;50.074;8.488;2023-12-07T06:52:57;18.40;;;9.35;;
83284;SDS011;73191;50.074;8.488;2023-12-07T06:55:25;15.40;;;9.10;;
83284;SDS011;73191;50.074;8.488;2023-12-07T06:57:52;15.27;;;8.40;;
83284;SDS011;73191;50.074;8.488;2023-12-07T07:00:20;18.75;;;10.05;;
83284;SDS011;73191;50.074;8.488;2023-12-07T07:02:52;17.98;;;9.60;;
83284;SDS011;73191;50.074;8.488;2023-12-07T07:05:19;14.82;;;8.20;;
83284;SDS011;73191;50.074;8.488;2023-12-07T07:07:47;17.15;;;8.32;;
83284;SDS011;73191;50.074;8.488;2023-12-07T07:10:17;14.40;;;8.20;;
83284;SDS011;73191;50.074;8.488;2023-12-07T07:12:45;15.18;;;7.10;;
83284;SDS011;73191;50.074;8.488;2023-12-07T07:15:13;16.98;;;8.00;;
83284;SDS011;73191;50.074;8.488;2023-12-07T07:17:41;13.32;;;8.32;;
83284;SDS011;73191;50.074;8.488;2023-12-07T07:20:10;14.88;;;7.88;;
83284;SDS011;73191;50.074;8.488;2023-12-07T07:22:38;15.10;;;8.27;;
83284;SDS011;73191;50.074;8.488;2023-12-07T07:25:07;14.10;;;7.90;;
83284;SDS011;73191;50.074;8.488;2023-12-07T07:27:36;17.83;;;9.00;;
83284;SDS011;73191;50.074;8.488;2023-12-07T07:30:04;13.85;;;7.45;;
83284;SDS011;73191;50.074;8.488;2023-12-07T07:32:34;13.93;;;8.30;;
83284;SDS011;73191;50.074;8.488;2023-12-07T07:35:03;14.88;;;8.27;;
83284;SDS011;73191;50.074;8.488;2023-12-07T07:37:32;14.35;;;8.32;;
83284;SDS011;73191;50.074;8.488;2023-12-07T07:40:00;13.98;;;8.07;;
83284;SDS011;73191;50.074;8.488;2023-12-07T07:42:33;15.63;;;8.90;;
83284;SDS011;73191;50.074;8.488;2023-12-07T07:45:00;14.07;;;8.20;;
83284;SDS011;73191;50.074;8.488;2023-12-07T07:47:28;16.05;;;9.00;;
83284;SDS011;73191;50.074;8.488;2023-12-07T07:49:57;17.70;;;8.18;;
83284;SDS011;73191;50.074;8.488;2023-12-07T07:52:25;14.55;;;7.85;;
83284;SDS011;73191;50.074;8.488;2023-12-07T07:54:54;13.93;;;7.82;;
83284;SDS011;73191;50.074;8.488;2023-12-07T07:57:22;22.25;;;8.73;;
83284;SDS011;73191;50.074;8.488;2023-12-07T07:59:50;17.45;;;8.95;;
83284;SDS011;73191;50.074;8.488;2023-12-07T08:02:18;16.08;;;8.27;;
83284;SDS011;73191;50.074;8.488;2023-12-07T08:04:45;19.77;;;8.75;;
83284;SDS011;73191;50.074;8.488;2023-12-07T08:07:13;20.38;;;9.48;;
83284;SDS011;73191;50.074;8.488;2023-12-07T08:09:41;17.15;;;8.85;;
83284;SDS011;73191;50.074;8.488;2023-12-07T08:12:10;17.17;;;9.10;;
83284;SDS011;73191;50.074;8.488;2023-12-07T08:14:38;19.00;;;8.77;;
83284;SDS011;73191;50.074;8.488;2023-12-07T08:17:06;14.48;;;8.70;;
83284;SDS011;73191;50.074;8.488;2023-12-07T08:19:34;16.30;;;8.82;;
83284;SDS011;73191;50.074;8.488;2023-12-07T08:22:02;17.42;;;9.95;;
83284;SDS011;73191;50.074;8.488;2023-12-07T08:24:30;15.35;;;10.32;;
83284;SDS011;73191;50.074;8.488;2023-12-07T08:26:57;18.60;;;8.77;;
83284;SDS011;73191;50.074;8.488;2023-12-07T08:29:26;15.68;;;8.45;;
83284;SDS011;73191;50.074;8.488;2023-12-07T08:31:54;13.18;;;7.95;;
83284;SDS011;73191;50.074;8.488;2023-12-07T08:34:22;19.95;;;8.77;;
83284;SDS011;73191;50.074;8.488;2023-12-07T08:36:50;15.07;;;8.68;;
83284;SDS011;73191;50.074;8.488;2023-12-07T08:39:18;19.67;;;9.15;;
83284;SDS011;73191;50.074;8.488;2023-12-07T08:41:46;16.90;;;8.25;;
83284;SDS011;73191;50.074;8.488;2023-12-07T08:44:13;16.85;;;7.68;;
83284;SDS011;73191;50.074;8.488;2023-12-07T08:46:42;19.95;;;9.35;;
83284;SDS011;73191;50.074;8.488;2023-12-07T08:49:11;18.10;;;9.13;;
83284;SDS011;73191;50.074;8.488;2023-12-07T08:51:39;16.40;;;9.40;;
83284;SDS011;73191;50.074;8.488;2023-12-07T08:54:27;19.08;;;9.45;;
83284;SDS011;73191;50.074;8.488;2023-12-07T08:56:54;18.90;;;9.70;;
83284;SDS011;73191;50.074;8.488;2023-12-07T08:59:22;15.02;;;8.88;;
83284;SDS011;73191;50.074;8.488;2023-12-07T09:01:52;18.52;;;8.88;;
83284;SDS011;73191;50.074;8.488;2023-12-07T09:04:19;17.65;;;9.30;;
83284;SDS011;73191;50.074;8.488;2023-12-07T09:06:47;16.92;;;9.35;;
83284;SDS011;73191;50.074;8.488;2023-12-07T09:09:16;16.00;;;8.95;;
83284;SDS011;73191;50.074;8.488;2023-12-07T09:11:43;17.60;;;9.70;;
83284;SDS011;73191;50.074;8.488;2023-12-07T09:14:11;19.77;;;10.02;;
83284;SDS011;73191;50.074;8.488;2023-12-07T09:16:42;20.17;;;10.15;;
83284;SDS011;73191;50.074;8.488;2023-12-07T09:19:12;18.25;;;9.55;;
83284;SDS011;73191;50.074;8.488;2023-12-07T09:21:40;17.33;;;9.40;;
83284;SDS011;73191;50.074;8.488;2023-12-07T09:24:08;16.67;;;9.13;;
83284;SDS011;73191;50.074;8.488;2023-12-07T09:26:36;20.85;;;9.82;;
83284;SDS011;73191;50.074;8.488;2023-12-07T09:29:04;18.25;;;10.35;;
83284;SDS011;73191;50.074;8.488;2023-12-07T09:31:32;15.40;;;9.40;;
83284;SDS011;73191;50.074;8.488;2023-12-07T09:33:59;19.02;;;9.23;;
83284;SDS011;73191;50.074;8.488;2023-12-07T09:36:39;17.35;;;9.27;;
83284;SDS011;73191;50.074;8.488;2023-12-07T09:39:07;18.38;;;10.00;;
83284;SDS011;73191;50.074;8.488;2023-12-07T09:41:36;20.42;;;9.68;;
83284;SDS011;73191;50.074;8.488;2023-12-07T09:44:04;18.80;;;9.32;;
83284;SDS011;73191;50.074;8.488;2023-12-07T09:46:31;19.98;;;9.75;;
83284;SDS011;73191;50.074;8.488;2023-12-07T09:48:59;20.13;;;9.88;;
83284;SDS011;73191;50.074;8.488;2023-12-07T09:51:27;21.45;;;9.32;;
83284;SDS011;73191;50.074;8.488;2023-12-07T09:54:00;20.48;;;9.10;;
83284;SDS011;73191;50.074;8.488;2023-12-07T09:56:29;17.52;;;9.32;;
83284;SDS011;73191;50.074;8.488;2023-12-07T09:58:56;22.55;;;10.00;;
83284;SDS011;73191;50.074;8.488;2023-12-07T10:01:27;19.10;;;10.48;;
83284;SDS011;73191;50.074;8.488;2023-12-07T10:06:45;20.08;;;9.77;;
83284;SDS011;73191;50.074;8.488;2023-12-07T10:09:15;17.88;;;8.60;;
83284;SDS011;73191;50.074;8.488;2023-12-07T10:12:01;19.02;;;9.27;;
83284;SDS011;73191;50.074;8.488;2023-12-07T10:14:29;21.33;;;9.10;;
83284;SDS011;73191;50.074;8.488;2023-12-07T10:16:57;19.00;;;9.57;;
83284;SDS011;73191;50.074;8.488;2023-12-07T10:19:27;19.77;;;9.43;;
83284;SDS011;73191;50.074;8.488;2023-12-07T10:21:58;19.25;;;8.85;;
83284;SDS011;73191;50.074;8.488;2023-12-07T10:24:28;20.85;;;10.55;;
83284;SDS011;73191;50.074;8.488;2023-12-07T10:26:57;21.17;;;9.57;;
83284;SDS011;73191;50.074;8.488;2023-12-07T10:29:29;19.73;;;9.80;;
83284;SDS011;73191;50.074;8.488;2023-12-07T10:32:00;22.02;;;10.02;;
83284;SDS011;73191;50.074;8.488;2023-12-07T10:34:29;20.13;;;9.05;;
83284;SDS011;73191;50.074;8.488;2023-12-07T10:36:58;22.02;;;10.20;;
83284;SDS011;73191;50.074;8.488;2023-12-07T10:39:25;21.40;;;10.32;;
83284;SDS011;73191;50.074;8.488;2023-12-07T10:42:02;23.45;;;11.27;;
83284;SDS011;73191;50.074;8.488;2023-12-07T10:44:30;26.55;;;10.50;;
83284;SDS011;73191;50.074;8.488;2023-12-07T10:46:58;22.38;;;11.30;;
83284;SDS011;73191;50.074;8.488;2023-12-07T10:49:27;24.35;;;10.60;;
83284;SDS011;73191;50.074;8.488;2023-12-07T10:52:03;23.90;;;11.48;;
83284;SDS011;73191;50.074;8.488;2023-12-07T10:54:37;25.67;;;11.73;;
83284;SDS011;73191;50.074;8.488;2023-12-07T10:57:10;24.10;;;11.63;;
83284;SDS011;73191;50.074;8.488;2023-12-07T10:59:41;21.25;;;10.15;;
83284;SDS011;73191;50.074;8.488;2023-12-07T11:02:11;25.75;;;11.50;;
83284;SDS011;73191;50.074;8.488;2023-12-07T11:04:43;31.33;;;10.90;;
83284;SDS011;73191;50.074;8.488;2023-12-07T11:07:12;27.42;;;11.88;;
83284;SDS011;73191;50.074;8.488;2023-12-07T11:09:45;28.27;;;11.65;;
83284;SDS011;73191;50.074;8.488;2023-12-07T11:12:17;29.50;;;12.43;;
83284;SDS011;73191;50.074;8.488;2023-12-07T11:14:48;29.10;;;12.50;;
83284;SDS011;73191;50.074;8.488;2023-12-07T11:17:16;27.58;;;12.13;;
83284;SDS011;73191;50.074;8.488;2023-12-07T11:19:44;27.77;;;13.45;;
83284;SDS011;73191;50.074;8.488;2023-12-07T11:22:14;27.27;;;11.90;;
83284;SDS011;73191;50.074;8.488;2023-12-07T11:24:56;21.17;;;11.00;;
83284;SDS011;73191;50.074;8.488;2023-12-07T11:27:28;25.17;;;11.48;;
83284;SDS011;73191;50.074;8.488;2023-12-07T11:29:58;30.05;;;12.15;;
83284;SDS011;73191;50.074;8.488;2023-12-07T11:32:26;29.33;;;11.98;;
83284;SDS011;73191;50.074;8.488;2023-12-07T11:34:54;28.50;;;12.45;;
83284;SDS011;73191;50.074;8.488;2023-12-07T11:37:59;30.63;;;13.02;;
83284;SDS011;73191;50.074;8.488;2023-12-07T11:40:30;25.38;;;12.25;;
83284;SDS011;73191;50.074;8.488;2023-12-07T11:42:59;23.40;;;11.65;;
83284;SDS011;73191;50.074;8.488;2023-12-07T11:45:41;29.10;;;12.18;;
83284;SDS011;73191;50.074;8.488;2023-12-07T11:48:10;23.67;;;11.18;;
83284;SDS011;73191;50.074;8.488;2023-12-07T11:50:59;26.35;;;12.02;;
83284;SDS011;73191;50.074;8.488;2023-12-07T11:53:28;22.27;;;11.32;;
83284;SDS011;73191;50.074;8.488;2023-12-07T11:55:58;25.30;;;11.07;;
83284;SDS011;73191;50.074;8.488;2023-12-07T11:58:28;24.95;;;11.23;;
83284;SDS011;73191;50.074;8.488;2023-12-07T12:00:59;29.30;;;11.50;;
83284;SDS011;73191;50.074;8.488;2023-12-07T12:03:28;24.58;;;10.80;;
83284;SDS011;73191;50.074;8.488;2023-12-07T12:05:57;24.38;;;12.07;;
83284;SDS011;73191;50.074;8.488;2023-12-07T12:08:25;26.67;;;11.32;;
83284;SDS011;73191;50.074;8.488;2023-12-07T12:10:53;27.48;;;10.73;;
83284;SDS011;73191;50.074;8.488;2023-12-07T12:13:27;24.25;;;11.57;;
83284;SDS011;73191;50.074;8.488;2023-12-07T12:15:56;27.35;;;11.95;;
83284;SDS011;73191;50.074;8.488;2023-12-07T12:18:29;33.88;;;13.85;;
83284;SDS011;73191;50.074;8.488;2023-12-07T12:20:57;32.20;;;14.00;;
83284;SDS011;73191;50.074;8.488;2023-12-07T12:23:27;30.33;;;12.52;;
83284;SDS011;73191;50.074;8.488;2023-12-07T12:25:56;27.73;;;13.10;;
83284;SDS011;73191;50.074;8.488;2023-12-07T12:28:25;28.55;;;12.43;;
83284;SDS011;73191;50.074;8.488;2023-12-07T12:30:54;27.80;;;11.98;;
83284;SDS011;73191;50.074;8.488;2023-12-07T12:33:22;31.15;;;11.45;;
83284;SDS011;73191;50.074;8.488;2023-12-07T12:36:00;26.92;;;12.73;;
83284;SDS011;73191;50.074;8.488;2023-12-07T12:38:33;32.63;;;13.00;;
83284;SDS011;73191;50.074;8.488;2023-12-07T12:41:09;30.85;;;12.32;;
83284;SDS011;73191;50.074;8.488;2023-12-07T12:43:38;31.23;;;12.38;;
83284;SDS011;73191;50.074;8.488;2023-12-07T12:46:06;30.50;;;12.68;;
83284;SDS011;73191;50.074;8.488;2023-12-07T12:48:34;34.08;;;13.48;;
83284;SDS011;73191;50.074;8.488;2023-12-07T12:51:08;27.65;;;12.32;;
83284;SDS011;73191;50.074;8.488;2023-12-07T12:53:41;28.13;;;12.80;;
83284;SDS011;73191;50.074;8.488;2023-12-07T12:56:10;32.28;;;14.60;;
83284;SDS011;73191;50.074;8.488;2023-12-07T12:58:39;33.25;;;13.57;;
83284;SDS011;73191;50.074;8.488;2023-12-07T13:01:07;34.58;;;14.07;;
83284;SDS011;73191;50.074;8.488;2023-12-07T13:03:35;32.40;;;13.25;;
83284;SDS011;73191;50.074;8.488;2023-12-07T13:06:03;30.30;;;13.20;;
83284;SDS011;73191;50.074;8.488;2023-12-07T13:08:32;31.67;;;13.70;;
83284;SDS011;73191;50.074;8.488;2023-12-07T13:11:00;28.52;;;11.88;;
83284;SDS011;73191;50.074;8.488;2023-12-07T13:13:28;27.85;;;12.60;;
83284;SDS011;73191;50.074;8.488;2023-12-07T13:15:57;28.17;;;12.38;;
83284;SDS011;73191;50.074;8.488;2023-12-07T13:18:25;25.75;;;12.05;;
83284;SDS011;73191;50.074;8.488;2023-12-07T13:20:53;27.30;;;11.90;;
83284;SDS011;73191;50.074;8.488;2023-12-07T13:23:22;27.15;;;12.90;;
83284;SDS011;73191;50.074;8.488;2023-12-07T13:25:50;28.88;;;12.48;;
83284;SDS011;73191;50.074;8.488;2023-12-07T13:28:18;32.67;;;12.57;;
83284;SDS011;73191;50.074;8.488;2023-12-07T13:30:46;31.45;;;13.65;;
83284;SDS011;73191;50.074;8.488;2023-12-07T13:33:15;29.85;;;13.18;;
83284;SDS011;73191;50.074;8.488;2023-12-07T13:35:53;26.63;;;11.32;;
83284;SDS011;73191;50.074;8.488;2023-12-07T13:38:22;26.83;;;11.73;;
83284;SDS011;73191;50.074;8.488;2023-12-07T13:40:50;25.45;;;10.57;;
83284;SDS011;73191;50.074;8.488;2023-12-07T13:43:18;27.20;;;10.15;;
83284;SDS011;73191;50.074;8.488;2023-12-07T13:45:46;26.75;;;11.13;;
83284;SDS011;73191;50.074;8.488;2023-12-07T13:48:15;25.45;;;12.00;;
83284;SDS011;73191;50.074;8.488;2023-12-07T13:50:44;26.88;;;12.18;;
83284;SDS011;73191;50.074;8.488;2023-12-07T13:53:12;27.48;;;12.25;;
83284;SDS011;73191;50.074;8.488;2023-12-07T13:55:40;28.88;;;14.25;;
83284;SDS011;73191;50.074;8.488;2023-12-07T13:58:08;31.02;;;14.35;;
83284;SDS011;73191;50.074;8.488;2023-12-07T14:00:37;31.15;;;15.05;;
83284;SDS011;73191;50.074;8.488;2023-12-07T14:03:05;31.48;;;14.48;;
83284;SDS011;73191;50.074;8.488;2023-12-07T14:05:34;31.00;;;12.95;;
83284;SDS011;73191;50.074;8.488;2023-12-07T14:08:02;30.33;;;13.32;;
83284;SDS011;73191;50.074;8.488;2023-12-07T14:10:30;25.67;;;11.45;;
83284;SDS011;73191;50.074;8.488;2023-12-07T14:12:58;26.48;;;12.10;;
83284;SDS011;73191;50.074;8.488;2023-12-07T14:15:26;24.88;;;11.35;;
83284;SDS011;73191;50.074;8.488;2023-12-07T14:18:10;28.27;;;11.45;;
83284;SDS011;73191;50.074;8.488;2023-12-07T14:20:40;26.42;;;12.02;;
83284;SDS011;73191;50.074;8.488;2023-12-07T14:23:27;29.80;;;13.25;;
83284;SDS011;73191;50.074;8.488;2023-12-07T14:25:55;28.33;;;13.10;;
83284;SDS011;73191;50.074;8.488;2023-12-07T14:28:29;30.35;;;13.27;;
83284;SDS011;73191;50.074;8.488;2023-12-07T14:31:00;30.23;;;12.07;;
83284;SDS011;73191;50.074;8.488;2023-12-07T14:33:28;25.35;;;11.88;;
83284;SDS011;73191;50.074;8.488;2023-12-07T14:35:57;28.00;;;11.70;;
83284;SDS011;73191;50.074;8.488;2023-12-07T14:38:25;24.63;;;11.30;;
83284;SDS011;73191;50.074;8.488;2023-12-07T14:40:53;26.25;;;11.93;;
83284;SDS011;73191;50.074;8.488;2023-12-07T14:43:22;25.77;;;12.13;;
83284;SDS011;73191;50.074;8.488;2023-12-07T14:45:49;28.63;;;13.85;;